EBAW METAR and TAF | Updated Today

EBAW METAR

Antwerp International Airport (Deurne)

Observation time: 15 min. ago

EBAW 292050Z 01008KT 340V040 CAVOK 12/05 Q1025 NOSIG

Need help? Read our tutorial on how to read METARs or read the parsed version below.

Antwerp International Airport (Deurne) (EBAW) METAR

  • Weather conditions on Mon, 29 May 2023 20:50:00 +0000 (15 min. ago):
  • Present conditions: Dry
  • Clouds: Clear skies
  • Visibility: Greater than 10 km
  • Wind: 10 degrees at 8 knots
  • Temperature: 12 celsius
  • Dew point: 5 celsius
  • Pressure: 1025 millibars
  • Remarks: None


Useful to know...

EBAW TAF

Antwerp International Airport (Deurne)

TAF EBAW 292008Z 2921/3006 03009KT CAVOK
Observation time: 57 min. ago
Need help? Read our tutorial on how to read TAFs or read the parsed version below.

Parsed version of TAF for Antwerp International Airport (Deurne) (EBAW)

  • From 29 May at 21:00 UTC, to day 30 of the month at 06:00 UTC
  • Visibility: Greater than 10 km
  • Wind: 30 degrees at 9